sensor_id;sensor_type;location;lat;lon;timestamp;P1;durP1;ratioP1;P2;durP2;ratioP2
6378;SDS011;3222;48.858;10.128;2023-08-20T00:00:51;6.40;;;4.75;;
6378;SDS011;3222;48.858;10.128;2023-08-20T00:03:17;6.85;;;4.97;;
6378;SDS011;3222;48.858;10.128;2023-08-20T00:05:43;9.27;;;4.88;;
6378;SDS011;3222;48.858;10.128;2023-08-20T00:08:09;6.90;;;4.72;;
6378;SDS011;3222;48.858;10.128;2023-08-20T00:10:35;5.78;;;5.03;;
6378;SDS011;3222;48.858;10.128;2023-08-20T00:13:00;6.43;;;4.70;;
6378;SDS011;3222;48.858;10.128;2023-08-20T00:15:26;6.07;;;4.80;;
6378;SDS011;3222;48.858;10.128;2023-08-20T00:17:53;8.70;;;4.70;;
6378;SDS011;3222;48.858;10.128;2023-08-20T00:20:20;5.53;;;4.70;;
6378;SDS011;3222;48.858;10.128;2023-08-20T00:22:47;7.53;;;4.85;;
6378;SDS011;3222;48.858;10.128;2023-08-20T00:25:13;6.28;;;4.78;;
6378;SDS011;3222;48.858;10.128;2023-08-20T00:27:44;5.80;;;4.90;;
6378;SDS011;3222;48.858;10.128;2023-08-20T00:30:11;7.97;;;4.90;;
6378;SDS011;3222;48.858;10.128;2023-08-20T00:32:37;12.00;;;5.35;;
6378;SDS011;3222;48.858;10.128;2023-08-20T00:35:03;8.75;;;5.35;;
6378;SDS011;3222;48.858;10.128;2023-08-20T00:37:29;8.43;;;4.97;;
6378;SDS011;3222;48.858;10.128;2023-08-20T00:39:55;11.18;;;4.53;;
6378;SDS011;3222;48.858;10.128;2023-08-20T00:42:22;10.70;;;4.82;;
6378;SDS011;3222;48.858;10.128;2023-08-20T00:44:50;6.20;;;4.45;;
6378;SDS011;3222;48.858;10.128;2023-08-20T00:47:19;9.07;;;4.90;;
6378;SDS011;3222;48.858;10.128;2023-08-20T00:49:46;10.95;;;4.60;;
6378;SDS011;3222;48.858;10.128;2023-08-20T00:52:12;6.50;;;4.93;;
6378;SDS011;3222;48.858;10.128;2023-08-20T00:54:40;6.80;;;4.60;;
6378;SDS011;3222;48.858;10.128;2023-08-20T00:57:06;6.72;;;4.60;;
6378;SDS011;3222;48.858;10.128;2023-08-20T00:59:33;5.72;;;4.72;;
6378;SDS011;3222;48.858;10.128;2023-08-20T01:02:00;13.68;;;5.30;;
6378;SDS011;3222;48.858;10.128;2023-08-20T01:04:26;5.63;;;5.07;;
6378;SDS011;3222;48.858;10.128;2023-08-20T01:12:25;8.52;;;4.95;;
6378;SDS011;3222;48.858;10.128;2023-08-20T01:14:51;6.20;;;4.95;;
6378;SDS011;3222;48.858;10.128;2023-08-20T01:17:17;7.65;;;5.20;;
6378;SDS011;3222;48.858;10.128;2023-08-20T01:19:42;6.15;;;4.97;;
6378;SDS011;3222;48.858;10.128;2023-08-20T01:25:04;5.97;;;5.38;;
6378;SDS011;3222;48.858;10.128;2023-08-20T01:27:46;5.18;;;4.78;;
6378;SDS011;3222;48.858;10.128;2023-08-20T01:30:27;7.63;;;5.50;;
6378;SDS011;3222;48.858;10.128;2023-08-20T01:32:54;5.80;;;5.15;;
6378;SDS011;3222;48.858;10.128;2023-08-20T01:35:20;8.05;;;4.93;;
6378;SDS011;3222;48.858;10.128;2023-08-20T01:38:01;7.55;;;5.43;;
6378;SDS011;3222;48.858;10.128;2023-08-20T01:40:28;6.68;;;4.85;;
6378;SDS011;3222;48.858;10.128;2023-08-20T01:42:54;5.22;;;4.72;;
6378;SDS011;3222;48.858;10.128;2023-08-20T01:45:20;5.85;;;5.35;;
6378;SDS011;3222;48.858;10.128;2023-08-20T01:47:47;7.38;;;5.03;;
6378;SDS011;3222;48.858;10.128;2023-08-20T01:50:13;6.38;;;5.00;;
6378;SDS011;3222;48.858;10.128;2023-08-20T01:52:39;5.70;;;5.20;;
6378;SDS011;3222;48.858;10.128;2023-08-20T01:55:05;8.80;;;5.07;;
6378;SDS011;3222;48.858;10.128;2023-08-20T01:57:32;7.45;;;5.07;;
6378;SDS011;3222;48.858;10.128;2023-08-20T01:59:58;9.10;;;5.55;;
6378;SDS011;3222;48.858;10.128;2023-08-20T02:02:24;6.03;;;5.40;;
6378;SDS011;3222;48.858;10.128;2023-08-20T02:04:50;9.95;;;5.60;;
6378;SDS011;3222;48.858;10.128;2023-08-20T02:07:16;5.82;;;5.22;;
6378;SDS011;3222;48.858;10.128;2023-08-20T02:09:42;7.30;;;5.18;;
6378;SDS011;3222;48.858;10.128;2023-08-20T02:12:08;6.28;;;5.68;;
6378;SDS011;3222;48.858;10.128;2023-08-20T02:14:34;6.35;;;5.45;;
6378;SDS011;3222;48.858;10.128;2023-08-20T02:17:00;6.28;;;5.15;;
6378;SDS011;3222;48.858;10.128;2023-08-20T02:19:27;7.05;;;5.28;;
6378;SDS011;3222;48.858;10.128;2023-08-20T02:21:53;5.55;;;5.03;;
6378;SDS011;3222;48.858;10.128;2023-08-20T02:24:18;6.00;;;5.00;;
6378;SDS011;3222;48.858;10.128;2023-08-20T02:26:44;8.45;;;5.43;;
6378;SDS011;3222;48.858;10.128;2023-08-20T02:29:10;6.55;;;5.10;;
6378;SDS011;3222;48.858;10.128;2023-08-20T02:31:35;5.72;;;4.90;;
6378;SDS011;3222;48.858;10.128;2023-08-20T02:34:01;7.90;;;5.50;;
6378;SDS011;3222;48.858;10.128;2023-08-20T02:36:27;6.68;;;5.22;;
6378;SDS011;3222;48.858;10.128;2023-08-20T02:38:53;5.32;;;4.82;;
6378;SDS011;3222;48.858;10.128;2023-08-20T02:41:18;5.82;;;5.22;;
6378;SDS011;3222;48.858;10.128;2023-08-20T02:43:44;6.60;;;4.97;;
6378;SDS011;3222;48.858;10.128;2023-08-20T02:46:10;7.30;;;5.25;;
6378;SDS011;3222;48.858;10.128;2023-08-20T02:48:36;8.52;;;5.40;;
6378;SDS011;3222;48.858;10.128;2023-08-20T02:51:02;6.30;;;5.30;;
6378;SDS011;3222;48.858;10.128;2023-08-20T02:53:28;11.90;;;5.38;;
6378;SDS011;3222;48.858;10.128;2023-08-20T02:55:54;9.23;;;5.38;;
6378;SDS011;3222;48.858;10.128;2023-08-20T02:58:19;8.05;;;5.13;;
6378;SDS011;3222;48.858;10.128;2023-08-20T03:00:45;5.60;;;5.10;;
6378;SDS011;3222;48.858;10.128;2023-08-20T03:03:11;7.93;;;5.90;;
6378;SDS011;3222;48.858;10.128;2023-08-20T03:05:39;7.28;;;5.30;;
6378;SDS011;3222;48.858;10.128;2023-08-20T03:08:05;7.25;;;5.00;;
6378;SDS011;3222;48.858;10.128;2023-08-20T03:10:31;5.68;;;5.10;;
6378;SDS011;3222;48.858;10.128;2023-08-20T03:13:03;5.82;;;5.18;;
6378;SDS011;3222;48.858;10.128;2023-08-20T03:15:29;7.60;;;5.50;;
6378;SDS011;3222;48.858;10.128;2023-08-20T03:17:55;8.82;;;5.70;;
6378;SDS011;3222;48.858;10.128;2023-08-20T03:20:21;6.75;;;5.72;;
6378;SDS011;3222;48.858;10.128;2023-08-20T03:22:47;8.60;;;5.90;;
6378;SDS011;3222;48.858;10.128;2023-08-20T03:25:13;6.40;;;5.57;;
6378;SDS011;3222;48.858;10.128;2023-08-20T03:27:38;6.18;;;5.57;;
6378;SDS011;3222;48.858;10.128;2023-08-20T03:30:04;7.22;;;5.65;;
6378;SDS011;3222;48.858;10.128;2023-08-20T03:32:31;6.65;;;5.65;;
6378;SDS011;3222;48.858;10.128;2023-08-20T03:34:57;6.90;;;5.93;;
6378;SDS011;3222;48.858;10.128;2023-08-20T03:37:24;6.00;;;5.30;;
6378;SDS011;3222;48.858;10.128;2023-08-20T03:39:53;8.85;;;5.78;;
6378;SDS011;3222;48.858;10.128;2023-08-20T03:42:19;8.07;;;5.55;;
6378;SDS011;3222;48.858;10.128;2023-08-20T03:44:46;6.10;;;5.40;;
6378;SDS011;3222;48.858;10.128;2023-08-20T03:47:12;7.57;;;5.22;;
6378;SDS011;3222;48.858;10.128;2023-08-20T03:49:38;7.43;;;5.50;;
6378;SDS011;3222;48.858;10.128;2023-08-20T03:52:04;7.95;;;5.80;;
6378;SDS011;3222;48.858;10.128;2023-08-20T03:54:32;7.40;;;5.55;;
6378;SDS011;3222;48.858;10.128;2023-08-20T03:56:59;6.25;;;5.75;;
6378;SDS011;3222;48.858;10.128;2023-08-20T03:59:24;9.50;;;6.15;;
6378;SDS011;3222;48.858;10.128;2023-08-20T04:01:50;6.45;;;5.70;;
6378;SDS011;3222;48.858;10.128;2023-08-20T04:04:16;6.78;;;6.15;;
6378;SDS011;3222;48.858;10.128;2023-08-20T04:06:42;8.23;;;6.05;;
6378;SDS011;3222;48.858;10.128;2023-08-20T04:09:07;10.48;;;6.05;;
6378;SDS011;3222;48.858;10.128;2023-08-20T04:11:34;8.02;;;6.00;;
6378;SDS011;3222;48.858;10.128;2023-08-20T04:14:00;6.57;;;5.63;;
6378;SDS011;3222;48.858;10.128;2023-08-20T04:16:26;6.50;;;5.90;;
6378;SDS011;3222;48.858;10.128;2023-08-20T04:18:53;7.38;;;6.03;;
6378;SDS011;3222;48.858;10.128;2023-08-20T04:21:19;8.57;;;6.15;;
6378;SDS011;3222;48.858;10.128;2023-08-20T04:23:44;7.50;;;6.70;;
6378;SDS011;3222;48.858;10.128;2023-08-20T04:26:10;7.38;;;6.57;;
6378;SDS011;3222;48.858;10.128;2023-08-20T04:28:36;9.60;;;6.50;;
6378;SDS011;3222;48.858;10.128;2023-08-20T04:31:01;11.43;;;6.03;;
6378;SDS011;3222;48.858;10.128;2023-08-20T04:33:40;7.63;;;5.90;;
6378;SDS011;3222;48.858;10.128;2023-08-20T04:36:06;7.40;;;6.28;;
6378;SDS011;3222;48.858;10.128;2023-08-20T04:38:32;6.63;;;5.90;;
6378;SDS011;3222;48.858;10.128;2023-08-20T04:40:58;8.07;;;6.03;;
6378;SDS011;3222;48.858;10.128;2023-08-20T04:43:23;7.50;;;4.88;;
6378;SDS011;3222;48.858;10.128;2023-08-20T04:45:49;6.65;;;5.03;;
6378;SDS011;3222;48.858;10.128;2023-08-20T04:48:15;6.47;;;4.57;;
6378;SDS011;3222;48.858;10.128;2023-08-20T04:50:41;5.95;;;5.03;;
6378;SDS011;3222;48.858;10.128;2023-08-20T04:53:07;6.28;;;4.63;;
6378;SDS011;3222;48.858;10.128;2023-08-20T04:55:33;8.25;;;4.90;;
6378;SDS011;3222;48.858;10.128;2023-08-20T04:57:58;5.95;;;4.75;;
6378;SDS011;3222;48.858;10.128;2023-08-20T05:00:24;8.70;;;5.40;;
6378;SDS011;3222;48.858;10.128;2023-08-20T05:03:06;9.20;;;5.65;;
6378;SDS011;3222;48.858;10.128;2023-08-20T05:05:32;5.95;;;4.75;;
6378;SDS011;3222;48.858;10.128;2023-08-20T05:07:58;7.32;;;5.57;;
6378;SDS011;3222;48.858;10.128;2023-08-20T05:10:24;7.43;;;5.30;;
6378;SDS011;3222;48.858;10.128;2023-08-20T05:12:50;6.22;;;5.57;;
6378;SDS011;3222;48.858;10.128;2023-08-20T05:15:16;7.55;;;5.70;;
6378;SDS011;3222;48.858;10.128;2023-08-20T05:17:42;6.22;;;5.63;;
6378;SDS011;3222;48.858;10.128;2023-08-20T05:20:08;6.68;;;6.00;;
6378;SDS011;3222;48.858;10.128;2023-08-20T05:22:34;6.72;;;6.07;;
6378;SDS011;3222;48.858;10.128;2023-08-20T05:25:01;7.85;;;6.18;;
6378;SDS011;3222;48.858;10.128;2023-08-20T05:27:27;7.35;;;6.65;;
6378;SDS011;3222;48.858;10.128;2023-08-20T05:29:53;9.60;;;6.40;;
6378;SDS011;3222;48.858;10.128;2023-08-20T05:32:19;6.88;;;6.18;;
6378;SDS011;3222;48.858;10.128;2023-08-20T05:34:45;10.57;;;7.07;;
6378;SDS011;3222;48.858;10.128;2023-08-20T05:37:11;6.78;;;6.00;;
6378;SDS011;3222;48.858;10.128;2023-08-20T05:39:41;6.95;;;5.88;;
6378;SDS011;3222;48.858;10.128;2023-08-20T05:42:08;8.15;;;6.55;;
6378;SDS011;3222;48.858;10.128;2023-08-20T05:44:34;8.55;;;6.90;;
6378;SDS011;3222;48.858;10.128;2023-08-20T05:47:01;7.80;;;6.97;;
6378;SDS011;3222;48.858;10.128;2023-08-20T05:49:27;8.02;;;6.93;;
6378;SDS011;3222;48.858;10.128;2023-08-20T05:51:53;7.35;;;6.65;;
6378;SDS011;3222;48.858;10.128;2023-08-20T05:54:18;7.32;;;6.32;;
6378;SDS011;3222;48.858;10.128;2023-08-20T05:56:44;9.60;;;6.93;;
6378;SDS011;3222;48.858;10.128;2023-08-20T05:59:10;8.95;;;6.65;;
6378;SDS011;3222;48.858;10.128;2023-08-20T06:01:36;8.93;;;7.32;;
6378;SDS011;3222;48.858;10.128;2023-08-20T06:04:02;7.68;;;6.90;;
6378;SDS011;3222;48.858;10.128;2023-08-20T06:06:27;10.98;;;6.95;;
6378;SDS011;3222;48.858;10.128;2023-08-20T06:08:53;12.30;;;7.00;;
6378;SDS011;3222;48.858;10.128;2023-08-20T06:11:19;10.98;;;6.70;;
6378;SDS011;3222;48.858;10.128;2023-08-20T06:13:45;7.80;;;6.70;;
6378;SDS011;3222;48.858;10.128;2023-08-20T06:16:11;8.15;;;6.20;;
6378;SDS011;3222;48.858;10.128;2023-08-20T06:18:37;7.03;;;6.28;;
6378;SDS011;3222;48.858;10.128;2023-08-20T06:21:03;9.52;;;6.65;;
6378;SDS011;3222;48.858;10.128;2023-08-20T06:23:29;10.90;;;6.40;;
6378;SDS011;3222;48.858;10.128;2023-08-20T06:25:54;10.68;;;6.47;;
6378;SDS011;3222;48.858;10.128;2023-08-20T06:28:20;8.93;;;6.88;;
6378;SDS011;3222;48.858;10.128;2023-08-20T06:30:46;7.93;;;6.20;;
6378;SDS011;3222;48.858;10.128;2023-08-20T06:33:12;6.90;;;6.20;;
6378;SDS011;3222;48.858;10.128;2023-08-20T06:35:38;7.00;;;5.88;;
6378;SDS011;3222;48.858;10.128;2023-08-20T06:38:04;8.25;;;6.00;;
6378;SDS011;3222;48.858;10.128;2023-08-20T06:40:30;6.38;;;5.78;;
6378;SDS011;3222;48.858;10.128;2023-08-20T06:42:56;6.85;;;6.07;;
6378;SDS011;3222;48.858;10.128;2023-08-20T06:45:21;9.70;;;6.32;;
6378;SDS011;3222;48.858;10.128;2023-08-20T06:47:47;7.28;;;6.57;;
6378;SDS011;3222;48.858;10.128;2023-08-20T06:50:13;7.53;;;6.65;;
6378;SDS011;3222;48.858;10.128;2023-08-20T06:52:38;7.95;;;7.25;;
6378;SDS011;3222;48.858;10.128;2023-08-20T06:55:04;10.00;;;7.60;;
6378;SDS011;3222;48.858;10.128;2023-08-20T06:57:30;10.65;;;8.07;;
6378;SDS011;3222;48.858;10.128;2023-08-20T06:59:56;7.97;;;7.18;;
6378;SDS011;3222;48.858;10.128;2023-08-20T07:02:22;10.45;;;8.27;;
6378;SDS011;3222;48.858;10.128;2023-08-20T07:04:48;9.77;;;8.10;;
6378;SDS011;3222;48.858;10.128;2023-08-20T07:07:13;9.02;;;7.88;;
6378;SDS011;3222;48.858;10.128;2023-08-20T07:09:40;8.55;;;7.78;;
6378;SDS011;3222;48.858;10.128;2023-08-20T07:12:06;8.68;;;7.88;;
6378;SDS011;3222;48.858;10.128;2023-08-20T07:14:32;9.07;;;7.97;;
6378;SDS011;3222;48.858;10.128;2023-08-20T07:16:58;9.00;;;8.05;;
6378;SDS011;3222;48.858;10.128;2023-08-20T07:19:25;8.27;;;7.53;;
6378;SDS011;3222;48.858;10.128;2023-08-20T07:21:51;11.73;;;7.97;;
6378;SDS011;3222;48.858;10.128;2023-08-20T07:24:16;9.68;;;7.88;;
6378;SDS011;3222;48.858;10.128;2023-08-20T07:26:43;9.45;;;7.88;;
6378;SDS011;3222;48.858;10.128;2023-08-20T07:29:09;9.35;;;8.38;;
6378;SDS011;3222;48.858;10.128;2023-08-20T07:31:35;10.63;;;8.25;;
6378;SDS011;3222;48.858;10.128;2023-08-20T07:34:01;10.18;;;8.65;;
6378;SDS011;3222;48.858;10.128;2023-08-20T07:36:28;11.52;;;8.63;;
6378;SDS011;3222;48.858;10.128;2023-08-20T07:38:54;11.60;;;8.25;;
6378;SDS011;3222;48.858;10.128;2023-08-20T07:41:20;9.40;;;8.45;;
6378;SDS011;3222;48.858;10.128;2023-08-20T07:43:46;10.95;;;7.72;;
6378;SDS011;3222;48.858;10.128;2023-08-20T07:46:13;8.10;;;7.38;;
6378;SDS011;3222;48.858;10.128;2023-08-20T07:48:38;9.25;;;7.35;;
6378;SDS011;3222;48.858;10.128;2023-08-20T07:51:05;8.90;;;7.53;;
6378;SDS011;3222;48.858;10.128;2023-08-20T07:53:31;10.27;;;7.50;;
6378;SDS011;3222;48.858;10.128;2023-08-20T07:55:57;11.63;;;7.03;;
6378;SDS011;3222;48.858;10.128;2023-08-20T07:58:24;9.57;;;7.38;;
6378;SDS011;3222;48.858;10.128;2023-08-20T08:00:50;9.75;;;7.35;;
6378;SDS011;3222;48.858;10.128;2023-08-20T08:03:15;10.07;;;7.65;;
6378;SDS011;3222;48.858;10.128;2023-08-20T08:05:45;10.60;;;7.45;;
6378;SDS011;3222;48.858;10.128;2023-08-20T08:08:12;9.85;;;7.93;;
6378;SDS011;3222;48.858;10.128;2023-08-20T08:10:37;9.07;;;7.55;;
6378;SDS011;3222;48.858;10.128;2023-08-20T08:13:03;10.68;;;8.15;;
6378;SDS011;3222;48.858;10.128;2023-08-20T08:15:29;9.85;;;7.18;;
6378;SDS011;3222;48.858;10.128;2023-08-20T08:17:54;7.95;;;7.10;;
6378;SDS011;3222;48.858;10.128;2023-08-20T08:20:20;7.88;;;6.60;;
6378;SDS011;3222;48.858;10.128;2023-08-20T08:22:46;8.57;;;7.00;;
6378;SDS011;3222;48.858;10.128;2023-08-20T08:25:11;7.50;;;6.75;;
6378;SDS011;3222;48.858;10.128;2023-08-20T08:27:37;8.10;;;7.13;;
6378;SDS011;3222;48.858;10.128;2023-08-20T08:30:03;9.18;;;6.80;;
6378;SDS011;3222;48.858;10.128;2023-08-20T08:32:29;8.00;;;6.82;;
6378;SDS011;3222;48.858;10.128;2023-08-20T08:34:54;9.27;;;7.60;;
6378;SDS011;3222;48.858;10.128;2023-08-20T08:37:20;10.80;;;8.00;;
6378;SDS011;3222;48.858;10.128;2023-08-20T08:39:45;9.68;;;7.38;;
6378;SDS011;3222;48.858;10.128;2023-08-20T08:42:12;7.60;;;6.57;;
6378;SDS011;3222;48.858;10.128;2023-08-20T08:44:39;8.25;;;6.07;;
6378;SDS011;3222;48.858;10.128;2023-08-20T08:47:06;7.38;;;6.47;;
6378;SDS011;3222;48.858;10.128;2023-08-20T08:49:33;11.88;;;6.25;;
6378;SDS011;3222;48.858;10.128;2023-08-20T08:51:59;7.90;;;6.53;;
6378;SDS011;3222;48.858;10.128;2023-08-20T08:54:25;7.90;;;6.72;;
6378;SDS011;3222;48.858;10.128;2023-08-20T08:56:52;7.68;;;6.88;;
6378;SDS011;3222;48.858;10.128;2023-08-20T08:59:18;8.45;;;6.95;;
6378;SDS011;3222;48.858;10.128;2023-08-20T09:01:44;8.23;;;7.20;;
6378;SDS011;3222;48.858;10.128;2023-08-20T09:04:10;7.60;;;6.90;;
6378;SDS011;3222;48.858;10.128;2023-08-20T09:06:48;9.15;;;6.63;;
6378;SDS011;3222;48.858;10.128;2023-08-20T09:09:20;7.90;;;7.20;;
6378;SDS011;3222;48.858;10.128;2023-08-20T09:11:46;7.90;;;7.13;;
6378;SDS011;3222;48.858;10.128;2023-08-20T09:14:24;8.70;;;7.57;;
6378;SDS011;3222;48.858;10.128;2023-08-20T09:16:54;9.40;;;6.40;;
6378;SDS011;3222;48.858;10.128;2023-08-20T09:19:21;7.90;;;6.65;;
6378;SDS011;3222;48.858;10.128;2023-08-20T09:21:47;9.70;;;7.75;;
6378;SDS011;3222;48.858;10.128;2023-08-20T09:24:13;7.97;;;6.10;;
6378;SDS011;3222;48.858;10.128;2023-08-20T09:26:39;9.70;;;6.82;;
6378;SDS011;3222;48.858;10.128;2023-08-20T09:29:09;7.70;;;6.93;;
6378;SDS011;3222;48.858;10.128;2023-08-20T09:31:37;9.95;;;6.60;;
6378;SDS011;3222;48.858;10.128;2023-08-20T09:34:04;7.70;;;7.10;;
6378;SDS011;3222;48.858;10.128;2023-08-20T09:36:33;10.85;;;6.93;;
6378;SDS011;3222;48.858;10.128;2023-08-20T09:39:03;7.55;;;6.40;;
6378;SDS011;3222;48.858;10.128;2023-08-20T09:41:29;7.43;;;6.40;;
6378;SDS011;3222;48.858;10.128;2023-08-20T09:43:56;7.63;;;6.70;;
6378;SDS011;3222;48.858;10.128;2023-08-20T09:46:24;10.63;;;6.97;;
6378;SDS011;3222;48.858;10.128;2023-08-20T09:48:54;10.98;;;6.82;;
6378;SDS011;3222;48.858;10.128;2023-08-20T09:51:27;8.18;;;7.03;;
6378;SDS011;3222;48.858;10.128;2023-08-20T09:53:56;7.03;;;5.90;;
6378;SDS011;3222;48.858;10.128;2023-08-20T09:56:39;14.55;;;7.22;;
6378;SDS011;3222;48.858;10.128;2023-08-20T09:59:06;8.27;;;5.90;;
6378;SDS011;3222;48.858;10.128;2023-08-20T10:01:33;9.10;;;6.50;;
6378;SDS011;3222;48.858;10.128;2023-08-20T10:04:00;10.20;;;6.47;;
6378;SDS011;3222;48.858;10.128;2023-08-20T10:06:26;7.18;;;6.40;;
6378;SDS011;3222;48.858;10.128;2023-08-20T10:08:52;9.07;;;6.15;;
6378;SDS011;3222;48.858;10.128;2023-08-20T10:11:19;8.30;;;6.03;;
6378;SDS011;3222;48.858;10.128;2023-08-20T10:13:44;9.18;;;6.50;;
6378;SDS011;3222;48.858;10.128;2023-08-20T10:16:13;9.43;;;6.30;;
6378;SDS011;3222;48.858;10.128;2023-08-20T10:18:46;7.22;;;5.85;;
6378;SDS011;3222;48.858;10.128;2023-08-20T10:21:12;7.18;;;6.18;;
6378;SDS011;3222;48.858;10.128;2023-08-20T10:23:41;9.30;;;6.10;;
6378;SDS011;3222;48.858;10.128;2023-08-20T10:26:10;7.55;;;5.75;;
6378;SDS011;3222;48.858;10.128;2023-08-20T10:28:36;7.95;;;5.72;;
6378;SDS011;3222;48.858;10.128;2023-08-20T10:33:31;7.38;;;5.32;;
6378;SDS011;3222;48.858;10.128;2023-08-20T10:35:58;5.72;;;5.22;;
6378;SDS011;3222;48.858;10.128;2023-08-20T10:38:35;6.25;;;5.65;;
6378;SDS011;3222;48.858;10.128;2023-08-20T10:41:01;5.55;;;5.05;;
6378;SDS011;3222;48.858;10.128;2023-08-20T10:46:10;6.78;;;5.50;;
6378;SDS011;3222;48.858;10.128;2023-08-20T10:48:38;6.65;;;5.57;;
6378;SDS011;3222;48.858;10.128;2023-08-20T10:53:34;8.55;;;5.28;;
6378;SDS011;3222;48.858;10.128;2023-08-20T10:56:07;6.90;;;5.30;;
6378;SDS011;3222;48.858;10.128;2023-08-20T10:58:38;6.28;;;5.13;;
6378;SDS011;3222;48.858;10.128;2023-08-20T11:01:12;7.07;;;5.00;;
6378;SDS011;3222;48.858;10.128;2023-08-20T11:03:38;7.55;;;5.53;;
6378;SDS011;3222;48.858;10.128;2023-08-20T11:06:04;7.13;;;5.00;;
6378;SDS011;3222;48.858;10.128;2023-08-20T11:08:32;5.75;;;5.25;;
6378;SDS011;3222;48.858;10.128;2023-08-20T11:10:57;7.35;;;5.10;;
6378;SDS011;3222;48.858;10.128;2023-08-20T11:13:25;6.88;;;5.53;;
6378;SDS011;3222;48.858;10.128;2023-08-20T11:15:50;8.48;;;5.40;;
6378;SDS011;3222;48.858;10.128;2023-08-20T11:18:16;8.00;;;5.20;;
6378;SDS011;3222;48.858;10.128;2023-08-20T11:20:43;5.40;;;4.90;;
6378;SDS011;3222;48.858;10.128;2023-08-20T11:23:09;5.78;;;5.13;;
6378;SDS011;3222;48.858;10.128;2023-08-20T11:25:40;8.27;;;5.38;;
6378;SDS011;3222;48.858;10.128;2023-08-20T11:28:07;5.72;;;4.57;;
6378;SDS011;3222;48.858;10.128;2023-08-20T11:30:33;6.93;;;5.00;;
6378;SDS011;3222;48.858;10.128;2023-08-20T11:32:58;5.75;;;4.53;;
6378;SDS011;3222;48.858;10.128;2023-08-20T11:35:25;7.25;;;5.13;;
6378;SDS011;3222;48.858;10.128;2023-08-20T11:37:51;7.22;;;5.03;;
6378;SDS011;3222;48.858;10.128;2023-08-20T11:40:20;7.63;;;5.10;;
6378;SDS011;3222;48.858;10.128;2023-08-20T11:42:46;7.32;;;4.82;;
6378;SDS011;3222;48.858;10.128;2023-08-20T11:45:12;5.28;;;4.75;;
6378;SDS011;3222;48.858;10.128;2023-08-20T11:47:38;7.00;;;4.93;;
6378;SDS011;3222;48.858;10.128;2023-08-20T11:50:05;7.78;;;4.53;;
6378;SDS011;3222;48.858;10.128;2023-08-20T11:52:32;7.60;;;4.75;;
6378;SDS011;3222;48.858;10.128;2023-08-20T11:54:58;5.43;;;4.93;;
6378;SDS011;3222;48.858;10.128;2023-08-20T11:57:25;5.63;;;4.93;;
6378;SDS011;3222;48.858;10.128;2023-08-20T11:59:51;8.52;;;4.95;;
6378;SDS011;3222;48.858;10.128;2023-08-20T12:02:24;5.68;;;4.70;;
6378;SDS011;3222;48.858;10.128;2023-08-20T12:04:51;6.53;;;4.75;;
6378;SDS011;3222;48.858;10.128;2023-08-20T12:07:16;7.03;;;4.88;;
6378;SDS011;3222;48.858;10.128;2023-08-20T12:09:42;7.10;;;4.93;;
6378;SDS011;3222;48.858;10.128;2023-08-20T12:12:08;7.82;;;4.80;;
6378;SDS011;3222;48.858;10.128;2023-08-20T12:14:34;6.75;;;4.63;;
6378;SDS011;3222;48.858;10.128;2023-08-20T12:17:00;5.38;;;4.70;;
6378;SDS011;3222;48.858;10.128;2023-08-20T12:19:28;5.05;;;4.32;;
6378;SDS011;3222;48.858;10.128;2023-08-20T12:21:54;7.00;;;4.40;;
6378;SDS011;3222;48.858;10.128;2023-08-20T12:24:19;5.43;;;4.50;;
6378;SDS011;3222;48.858;10.128;2023-08-20T12:26:46;6.15;;;4.72;;
6378;SDS011;3222;48.858;10.128;2023-08-20T12:29:11;5.28;;;4.47;;
6378;SDS011;3222;48.858;10.128;2023-08-20T12:31:37;5.18;;;4.60;;
6378;SDS011;3222;48.858;10.128;2023-08-20T12:34:03;7.72;;;4.72;;
6378;SDS011;3222;48.858;10.128;2023-08-20T12:36:29;6.65;;;4.47;;
6378;SDS011;3222;48.858;10.128;2023-08-20T12:38:55;6.40;;;4.10;;
6378;SDS011;3222;48.858;10.128;2023-08-20T12:41:21;6.53;;;4.93;;
6378;SDS011;3222;48.858;10.128;2023-08-20T12:43:47;9.40;;;5.40;;
6378;SDS011;3222;48.858;10.128;2023-08-20T12:46:13;7.18;;;4.50;;
6378;SDS011;3222;48.858;10.128;2023-08-20T12:48:39;4.68;;;4.28;;
6378;SDS011;3222;48.858;10.128;2023-08-20T12:51:05;9.65;;;4.38;;
6378;SDS011;3222;48.858;10.128;2023-08-20T12:53:31;6.32;;;4.40;;
6378;SDS011;3222;48.858;10.128;2023-08-20T12:55:57;7.65;;;4.70;;
6378;SDS011;3222;48.858;10.128;2023-08-20T12:58:23;7.40;;;4.57;;
6378;SDS011;3222;48.858;10.128;2023-08-20T13:00:49;6.15;;;4.25;;
6378;SDS011;3222;48.858;10.128;2023-08-20T13:03:16;7.53;;;3.97;;
6378;SDS011;3222;48.858;10.128;2023-08-20T13:05:45;6.93;;;4.05;;
6378;SDS011;3222;48.858;10.128;2023-08-20T13:08:11;5.40;;;4.20;;
6378;SDS011;3222;48.858;10.128;2023-08-20T13:10:40;4.70;;;3.97;;
6378;SDS011;3222;48.858;10.128;2023-08-20T13:13:08;5.20;;;4.32;;
6378;SDS011;3222;48.858;10.128;2023-08-20T13:15:35;5.00;;;4.38;;
6378;SDS011;3222;48.858;10.128;2023-08-20T13:18:01;6.68;;;4.28;;
6378;SDS011;3222;48.858;10.128;2023-08-20T13:20:27;5.60;;;4.32;;
6378;SDS011;3222;48.858;10.128;2023-08-20T13:22:53;4.03;;;3.60;;
6378;SDS011;3222;48.858;10.128;2023-08-20T13:25:19;5.97;;;4.00;;
6378;SDS011;3222;48.858;10.128;2023-08-20T13:27:46;5.78;;;4.20;;
6378;SDS011;3222;48.858;10.128;2023-08-20T13:30:12;5.63;;;3.80;;
6378;SDS011;3222;48.858;10.128;2023-08-20T13:32:38;6.55;;;4.55;;
6378;SDS011;3222;48.858;10.128;2023-08-20T13:35:04;4.97;;;3.85;;
6378;SDS011;3222;48.858;10.128;2023-08-20T13:37:30;9.68;;;4.55;;
6378;SDS011;3222;48.858;10.128;2023-08-20T13:39:57;6.47;;;3.80;;
6378;SDS011;3222;48.858;10.128;2023-08-20T13:42:23;4.35;;;3.92;;
6378;SDS011;3222;48.858;10.128;2023-08-20T13:44:49;6.18;;;4.30;;
6378;SDS011;3222;48.858;10.128;2023-08-20T13:47:14;7.25;;;4.28;;
6378;SDS011;3222;48.858;10.128;2023-08-20T13:49:40;6.03;;;4.15;;
6378;SDS011;3222;48.858;10.128;2023-08-20T13:52:06;7.60;;;3.80;;
6378;SDS011;3222;48.858;10.128;2023-08-20T13:54:32;9.05;;;3.92;;
6378;SDS011;3222;48.858;10.128;2023-08-20T13:56:58;6.03;;;3.58;;
6378;SDS011;3222;48.858;10.128;2023-08-20T13:59:23;6.15;;;3.83;;
6378;SDS011;3222;48.858;10.128;2023-08-20T14:01:49;9.68;;;4.03;;
6378;SDS011;3222;48.858;10.128;2023-08-20T14:04:15;4.32;;;3.90;;
6378;SDS011;3222;48.858;10.128;2023-08-20T14:06:40;5.05;;;3.70;;
6378;SDS011;3222;48.858;10.128;2023-08-20T14:09:06;5.82;;;3.83;;
6378;SDS011;3222;48.858;10.128;2023-08-20T14:11:32;4.70;;;3.60;;
6378;SDS011;3222;48.858;10.128;2023-08-20T14:13:57;6.38;;;3.67;;
6378;SDS011;3222;48.858;10.128;2023-08-20T14:16:23;4.22;;;3.50;;
6378;SDS011;3222;48.858;10.128;2023-08-20T14:18:49;6.93;;;3.80;;
6378;SDS011;3222;48.858;10.128;2023-08-20T14:21:14;5.60;;;3.95;;
6378;SDS011;3222;48.858;10.128;2023-08-20T14:23:40;5.30;;;3.70;;
6378;SDS011;3222;48.858;10.128;2023-08-20T14:26:06;4.10;;;3.60;;
6378;SDS011;3222;48.858;10.128;2023-08-20T14:28:32;4.90;;;4.25;;
6378;SDS011;3222;48.858;10.128;2023-08-20T14:31:02;7.10;;;4.68;;
6378;SDS011;3222;48.858;10.128;2023-08-20T14:33:29;10.52;;;4.28;;
6378;SDS011;3222;48.858;10.128;2023-08-20T14:35:55;4.82;;;3.75;;
6378;SDS011;3222;48.858;10.128;2023-08-20T14:38:21;4.70;;;3.90;;
6378;SDS011;3222;48.858;10.128;2023-08-20T14:40:47;7.55;;;4.18;;
6378;SDS011;3222;48.858;10.128;2023-08-20T14:43:12;4.80;;;3.42;;
6378;SDS011;3222;48.858;10.128;2023-08-20T14:45:38;4.18;;;3.78;;
6378;SDS011;3222;48.858;10.128;2023-08-20T14:48:04;5.03;;;4.15;;
6378;SDS011;3222;48.858;10.128;2023-08-20T14:50:30;6.00;;;3.85;;
6378;SDS011;3222;48.858;10.128;2023-08-20T14:52:56;5.85;;;3.80;;
6378;SDS011;3222;48.858;10.128;2023-08-20T14:55:22;6.75;;;3.67;;
6378;SDS011;3222;48.858;10.128;2023-08-20T14:57:48;4.60;;;3.75;;
6378;SDS011;3222;48.858;10.128;2023-08-20T15:00:14;4.28;;;3.80;;
6378;SDS011;3222;48.858;10.128;2023-08-20T15:02:40;3.90;;;3.50;;
6378;SDS011;3222;48.858;10.128;2023-08-20T15:05:06;4.07;;;3.63;;
6378;SDS011;3222;48.858;10.128;2023-08-20T15:07:32;6.40;;;4.00;;
6378;SDS011;3222;48.858;10.128;2023-08-20T15:09:58;6.03;;;3.83;;
6378;SDS011;3222;48.858;10.128;2023-08-20T15:12:23;6.40;;;3.78;;